createdAt,value
2018-12-17T00:01:37.973Z,-1.41
2018-12-17T00:04:03.894Z,-1.41
2018-12-17T00:06:29.866Z,-1.40
2018-12-17T00:08:55.739Z,-1.38
2018-12-17T00:11:21.738Z,-1.37
2018-12-17T00:13:47.639Z,-1.33
2018-12-17T00:16:13.502Z,-1.22
2018-12-17T00:18:39.376Z,-1.19
2018-12-17T00:21:05.210Z,-1.22
2018-12-17T00:23:31.100Z,-1.14
2018-12-17T00:25:56.940Z,-1.11
2018-12-17T00:28:22.813Z,-1.01
2018-12-17T00:30:48.647Z,-0.96
2018-12-17T00:33:14.535Z,-0.87
2018-12-17T00:35:40.462Z,-0.92
2018-12-17T00:38:06.307Z,-0.96
2018-12-17T00:40:32.279Z,-0.97
2018-12-17T00:42:58.243Z,-0.92
2018-12-17T00:45:31.066Z,-0.85
2018-12-17T00:47:56.913Z,-0.80
2018-12-17T00:50:22.818Z,-0.86
2018-12-17T00:52:48.761Z,-0.76
2018-12-17T00:55:14.625Z,-0.92
2018-12-17T00:57:40.510Z,-0.98
2018-12-17T01:00:07.495Z,-1.04
2018-12-17T01:02:33.366Z,-1.04
2018-12-17T01:04:59.240Z,-0.98
2018-12-17T01:07:27.106Z,-0.99
2018-12-17T01:09:53.005Z,-1.03
2018-12-17T01:12:18.925Z,-1.08
2018-12-17T01:14:44.815Z,-1.11
2018-12-17T01:17:10.665Z,-1.09
2018-12-17T01:19:36.609Z,-1.03
2018-12-17T01:22:02.608Z,-1.07
2018-12-17T01:24:28.458Z,-1.09
2018-12-17T01:26:54.304Z,-1.12
2018-12-17T01:29:20.173Z,-1.16
2018-12-17T01:31:46.031Z,-1.02
2018-12-17T01:34:11.871Z,-0.98
2018-12-17T01:36:37.762Z,-3.15
2018-12-17T01:39:04.566Z,-1.13
2018-12-17T01:41:30.406Z,-1.17
2018-12-17T01:43:56.246Z,-1.18
2018-12-17T01:46:22.207Z,-1.18
2018-12-17T01:48:48.030Z,-1.11
2018-12-17T01:51:13.874Z,-1.19
2018-12-17T01:53:39.702Z,-1.18
2018-12-17T01:56:05.929Z,-1.17
2018-12-17T01:58:31.778Z,-1.14
2018-12-17T02:00:57.737Z,-1.13
2018-12-17T02:03:23.595Z,-1.12
2018-12-17T02:05:49.471Z,-1.11
2018-12-17T02:08:15.309Z,-1.12
2018-12-17T02:10:41.168Z,-1.09
2018-12-17T02:13:07.015Z,-1.05
2018-12-17T02:15:32.860Z,-1.02
2018-12-17T02:17:58.738Z,-1.02
2018-12-17T02:20:24.583Z,-1.03
2018-12-17T02:22:50.442Z,-1.05
2018-12-17T02:25:16.292Z,-1.06
2018-12-17T02:27:42.164Z,-1.03
2018-12-17T02:30:08.225Z,-1.05
2018-12-17T02:32:34.136Z,-1.03
2018-12-17T02:34:59.967Z,-1.06
2018-12-17T02:37:25.830Z,-1.11
2018-12-17T02:39:51.750Z,-1.14
2018-12-17T02:42:17.613Z,-1.07
2018-12-17T02:44:46.322Z,-1.08
2018-12-17T02:47:12.146Z,-1.12
2018-12-17T02:49:38.141Z,-1.10
2018-12-17T02:52:04.106Z,-1.08
2018-12-17T02:54:29.986Z,-1.06
2018-12-17T02:56:55.947Z,-1.07
2018-12-17T02:59:21.818Z,-1.10
2018-12-17T03:01:47.665Z,-1.07
2018-12-17T03:04:13.526Z,-1.05
2018-12-17T03:06:39.504Z,-1.09
2018-12-17T03:09:05.938Z,-1.09
2018-12-17T03:11:31.793Z,-1.05
2018-12-17T03:13:57.607Z,-1.01
2018-12-17T03:16:23.478Z,-1.03
2018-12-17T03:18:49.325Z,-1.05
2018-12-17T03:21:15.228Z,-1.02
2018-12-17T03:23:41.146Z,-1.04
2018-12-17T03:26:07.049Z,-1.05
2018-12-17T03:28:32.898Z,-1.06
2018-12-17T03:30:58.732Z,-1.01
2018-12-17T03:33:24.646Z,-1.05
2018-12-17T03:35:50.510Z,-1.01
2018-12-17T03:38:16.362Z,-0.91
2018-12-17T03:40:42.318Z,-0.93
2018-12-17T03:43:08.169Z,-0.86
2018-12-17T03:45:34.015Z,-0.75
2018-12-17T03:47:59.866Z,-0.82
2018-12-17T03:50:25.710Z,-0.89
2018-12-17T03:52:51.555Z,-0.92
2018-12-17T03:55:17.435Z,-0.92
2018-12-17T03:57:43.253Z,-0.94
2018-12-17T04:00:09.287Z,-0.97
2018-12-17T04:02:35.155Z,-1.01
2018-12-17T04:05:01.141Z,-1.04
2018-12-17T04:07:27.136Z,-1.01
2018-12-17T04:09:53.116Z,-0.98
2018-12-17T04:12:18.967Z,-1.02
2018-12-17T04:14:44.835Z,-1.03
2018-12-17T04:17:10.704Z,-1.04
2018-12-17T04:19:36.532Z,-1.05
2018-12-17T04:22:02.512Z,-1.06
2018-12-17T04:24:28.346Z,-0.99
2018-12-17T04:26:54.231Z,-1.01
2018-12-17T04:29:20.079Z,-1.01
2018-12-17T04:31:45.942Z,-1.03
2018-12-17T04:34:11.818Z,-1.01
2018-12-17T04:36:37.702Z,-0.98
2018-12-17T04:39:04.608Z,-0.88
2018-12-17T04:41:30.438Z,-0.83
2018-12-17T04:43:56.294Z,-0.73
2018-12-17T04:46:22.141Z,-0.74
2018-12-17T04:48:47.985Z,-0.69
2018-12-17T04:51:13.955Z,-0.69
2018-12-17T04:53:39.842Z,-0.79
2018-12-17T04:56:05.707Z,-0.78
2018-12-17T04:58:31.575Z,-0.78
2018-12-17T05:00:57.509Z,-0.75
2018-12-17T05:03:23.372Z,-0.69
2018-12-17T05:05:49.208Z,-0.55
2018-12-17T05:08:15.052Z,-0.57
2018-12-17T05:10:40.916Z,-0.64
2018-12-17T05:13:06.734Z,-0.68
2018-12-17T05:15:32.643Z,-0.75
2018-12-17T05:17:58.498Z,-0.78
2018-12-17T05:20:24.348Z,-0.74
2018-12-17T05:22:50.192Z,-0.78
2018-12-17T05:25:16.043Z,-0.77
2018-12-17T05:27:41.935Z,-0.81
2018-12-17T05:30:08.238Z,-0.84
2018-12-17T05:32:34.093Z,-0.83
2018-12-17T05:35:00.051Z,-0.84
2018-12-17T05:37:25.950Z,-0.76
2018-12-17T05:39:52.150Z,-0.80
2018-12-17T05:42:18.014Z,-0.75
2018-12-17T05:44:43.853Z,-0.78
2018-12-17T05:47:09.727Z,-0.77
2018-12-17T05:49:35.550Z,-0.73
2018-12-17T05:52:01.502Z,-0.70
2018-12-17T05:54:27.360Z,-0.69
2018-12-17T05:56:53.229Z,-0.64
2018-12-17T05:59:19.053Z,-0.66
2018-12-17T06:01:44.889Z,-0.73
2018-12-17T06:04:10.710Z,-0.72
2018-12-17T06:06:36.715Z,-0.72
2018-12-17T06:09:05.357Z,-0.69
2018-12-17T06:11:31.438Z,-0.60
2018-12-17T06:13:57.396Z,-0.61
2018-12-17T06:16:23.399Z,-0.63
2018-12-17T06:18:49.343Z,-0.60
2018-12-17T06:21:15.232Z,-0.41
2018-12-17T06:23:41.109Z,-0.38
2018-12-17T06:26:06.969Z,-0.24
2018-12-17T06:28:32.837Z,-0.17
2018-12-17T06:30:58.661Z,-0.32
2018-12-17T06:33:24.515Z,-0.45
2018-12-17T06:35:50.550Z,-0.50
2018-12-17T06:38:16.450Z,-0.38
2018-12-17T06:40:42.282Z,-0.35
2018-12-17T06:43:08.161Z,-0.36
2018-12-17T06:45:33.979Z,-0.41
2018-12-17T06:47:59.848Z,-0.52
2018-12-17T06:50:25.707Z,-0.55
2018-12-17T06:52:51.586Z,-0.50
2018-12-17T06:55:17.434Z,-0.55
2018-12-17T06:57:43.378Z,-0.54
2018-12-17T07:00:09.345Z,-0.24
2018-12-17T07:02:35.205Z,-0.38
2018-12-17T07:05:01.067Z,-0.44
2018-12-17T07:07:26.894Z,-0.48
2018-12-17T07:09:52.755Z,-0.39
2018-12-17T07:12:18.721Z,-0.42
2018-12-17T07:14:44.546Z,-0.44
2018-12-17T07:17:10.405Z,-0.52
2018-12-17T07:19:36.356Z,-0.52
2018-12-17T07:22:02.186Z,-0.53
2018-12-17T07:24:28.030Z,-0.56
2018-12-17T07:26:53.943Z,-0.54
2018-12-17T07:29:19.797Z,-0.39
2018-12-17T07:31:45.711Z,-0.26
2018-12-17T07:34:11.582Z,-0.15
2018-12-17T07:36:37.493Z,-0.29
2018-12-17T07:39:05.067Z,-0.30
2018-12-17T07:41:30.943Z,-0.33
2018-12-17T07:43:56.799Z,-0.34
2018-12-17T07:46:22.651Z,-0.32
2018-12-17T07:51:41.281Z,-0.18
2018-12-17T07:54:07.147Z,-0.20
2018-12-17T07:56:32.995Z,-0.24
2018-12-17T07:58:58.837Z,-0.23
2018-12-17T08:01:24.762Z,-0.10
2018-12-17T08:03:50.646Z,-0.18
2018-12-17T08:06:16.531Z,-0.19
2018-12-17T08:08:42.433Z,-0.01
2018-12-17T08:11:08.259Z,0.02
2018-12-17T08:13:34.188Z,0.03
2018-12-17T08:16:00.163Z,0.01
2018-12-17T08:18:26.034Z,0.03
2018-12-17T08:20:52.031Z,0.19
2018-12-17T08:23:17.949Z,0.09
2018-12-17T08:25:43.842Z,0.24
2018-12-17T08:28:09.834Z,0.15
2018-12-17T08:30:35.755Z,0.29
2018-12-17T08:33:01.721Z,0.24
2018-12-17T08:35:27.558Z,-1.00
2018-12-17T08:37:54.306Z,0.29
2018-12-17T08:40:20.158Z,0.21
2018-12-17T08:42:46.059Z,0.17
2018-12-17T08:45:12.039Z,0.17
2018-12-17T08:47:37.892Z,0.45
2018-12-17T08:50:03.946Z,0.39
2018-12-17T08:52:29.870Z,0.34
2018-12-17T08:54:55.986Z,0.28
2018-12-17T08:57:21.847Z,0.44
2018-12-17T08:59:47.799Z,0.49
2018-12-17T09:02:13.770Z,0.47
2018-12-17T09:04:39.646Z,0.50
2018-12-17T09:07:05.783Z,0.51
2018-12-17T09:09:31.611Z,0.48
2018-12-17T09:11:57.537Z,0.46
2018-12-17T09:14:23.382Z,0.49
2018-12-17T09:16:49.247Z,0.49
2018-12-17T09:19:15.081Z,0.48
2018-12-17T09:21:40.958Z,0.47
2018-12-17T09:24:06.806Z,0.48
2018-12-17T09:26:32.810Z,0.60
2018-12-17T09:28:58.678Z,0.61
2018-12-17T09:31:25.332Z,0.61
2018-12-17T09:33:51.195Z,0.67
2018-12-17T09:36:17.066Z,0.77
2018-12-17T09:38:42.919Z,0.82
2018-12-17T09:41:08.845Z,0.83
2018-12-17T09:43:34.681Z,0.73
2018-12-17T09:46:00.876Z,0.92
2018-12-17T09:48:27.726Z,0.82
2018-12-17T09:50:53.606Z,0.71
2018-12-17T09:53:19.511Z,0.72
2018-12-17T09:55:45.366Z,0.69
2018-12-17T09:58:11.213Z,0.77
2018-12-17T10:00:37.078Z,0.75
2018-12-17T10:03:02.998Z,0.72
2018-12-17T10:05:28.850Z,0.75
2018-12-17T10:07:54.743Z,0.78
2018-12-17T10:10:20.736Z,0.78
2018-12-17T10:12:46.643Z,0.92
2018-12-17T10:15:12.709Z,0.78
2018-12-17T10:17:38.563Z,0.84
2018-12-17T10:20:04.619Z,0.73
2018-12-17T10:22:30.518Z,0.69
2018-12-17T10:24:56.503Z,0.76
2018-12-17T10:27:22.471Z,0.75
2018-12-17T10:29:49.051Z,0.73
2018-12-17T10:32:14.903Z,0.86
2018-12-17T10:34:40.769Z,0.95
2018-12-17T10:37:06.643Z,1.10
2018-12-17T10:39:32.631Z,1.12
2018-12-17T10:41:59.084Z,1.18
2018-12-17T10:44:25.040Z,1.14
2018-12-17T10:46:50.896Z,1.10
2018-12-17T10:49:16.781Z,1.00
2018-12-17T10:51:42.610Z,0.99
2018-12-17T10:54:08.697Z,1.07
2018-12-17T10:56:34.591Z,1.03
2018-12-17T10:59:00.995Z,1.05
2018-12-17T11:01:29.944Z,1.11
2018-12-17T11:03:57.932Z,1.05
2018-12-17T11:06:23.790Z,0.96
2018-12-17T11:08:49.739Z,0.98
2018-12-17T11:11:15.733Z,1.29
2018-12-17T11:13:41.804Z,1.31
2018-12-17T11:16:07.758Z,1.36
2018-12-17T11:18:33.616Z,1.41
2018-12-17T11:20:59.562Z,1.41
2018-12-17T11:23:25.420Z,1.42
2018-12-17T11:25:52.368Z,1.27
2018-12-17T11:28:18.438Z,1.25
2018-12-17T11:30:46.657Z,1.16
2018-12-17T11:33:12.574Z,1.13
2018-12-17T11:35:38.818Z,1.21
2018-12-17T11:38:04.728Z,1.34
2018-12-17T11:40:30.590Z,1.21
2018-12-17T11:42:56.573Z,1.19
2018-12-17T11:45:22.542Z,1.15
2018-12-17T11:47:48.406Z,1.15
2018-12-17T11:50:14.262Z,1.11
2018-12-17T11:52:40.247Z,1.09
2018-12-17T11:55:06.251Z,1.27
2018-12-17T11:57:52.914Z,1.34
2018-12-17T12:00:21.145Z,1.27
2018-12-17T12:02:47.076Z,1.37
2018-12-17T12:05:12.931Z,1.44
2018-12-17T12:07:38.806Z,1.50
2018-12-17T12:10:05.426Z,1.49
2018-12-17T12:12:31.310Z,1.40
2018-12-17T12:14:57.159Z,1.50
2018-12-17T12:17:23.025Z,1.45
2018-12-17T12:19:48.892Z,1.53
2018-12-17T12:22:14.731Z,1.47
2018-12-17T12:24:40.669Z,1.54
2018-12-17T12:27:06.503Z,1.59
2018-12-17T12:29:32.406Z,1.60
2018-12-17T12:31:58.227Z,1.59
2018-12-17T12:34:24.090Z,1.67
2018-12-17T12:36:50.057Z,1.45
2018-12-17T12:39:15.930Z,1.57
2018-12-17T12:41:41.778Z,1.64
2018-12-17T12:44:08.872Z,1.54
2018-12-17T12:46:35.127Z,1.61
2018-12-17T12:49:01.010Z,1.61
2018-12-17T12:51:32.550Z,1.60
2018-12-17T12:53:55.030Z,1.66
2018-12-17T12:56:21.001Z,1.58
2018-12-17T12:58:46.869Z,1.54
2018-12-17T13:01:12.715Z,1.64
2018-12-17T13:03:38.586Z,1.59
2018-12-17T13:06:04.594Z,1.59
2018-12-17T13:08:30.656Z,1.56
2018-12-17T13:10:56.516Z,1.54
2018-12-17T13:13:22.329Z,1.59
2018-12-17T13:15:48.177Z,1.46
2018-12-17T13:18:14.921Z,1.41
2018-12-17T13:20:40.782Z,1.53
2018-12-17T13:23:07.622Z,1.51
2018-12-17T13:25:36.707Z,1.46
2018-12-17T13:28:02.546Z,1.47
2018-12-17T13:30:28.395Z,1.55
2018-12-17T13:32:54.907Z,1.64
2018-12-17T13:35:20.766Z,1.66
2018-12-17T13:37:48.476Z,1.67
2018-12-17T13:40:14.518Z,1.52
2018-12-17T13:42:40.367Z,1.61
2018-12-17T13:45:06.442Z,1.50
2018-12-17T13:47:32.426Z,1.42
2018-12-17T13:50:00.290Z,1.42
2018-12-17T13:52:32.354Z,1.45
2018-12-17T13:54:58.199Z,1.49
2018-12-17T13:57:24.084Z,1.65
2018-12-17T13:59:49.928Z,1.62
2018-12-17T14:02:15.775Z,1.61
2018-12-17T14:07:49.859Z,1.61
2018-12-17T14:10:21.828Z,1.57
2018-12-17T14:12:47.700Z,1.62
2018-12-17T14:15:13.892Z,1.67
2018-12-17T14:17:42.134Z,1.57
2018-12-17T14:20:14.401Z,1.56
2018-12-17T14:22:40.386Z,1.50
2018-12-17T14:25:07.105Z,1.54
2018-12-17T14:27:33.032Z,1.66
2018-12-17T14:29:59.718Z,1.67
2018-12-17T14:32:25.729Z,1.51
2018-12-17T14:34:51.642Z,1.47
2018-12-17T14:37:17.505Z,1.46
2018-12-17T14:39:43.383Z,1.49
2018-12-17T14:42:09.279Z,1.55
2018-12-17T14:44:35.265Z,1.69
2018-12-17T14:47:01.342Z,1.60
2018-12-17T14:49:27.237Z,1.55
2018-12-17T14:51:53.343Z,1.55
2018-12-17T14:54:19.195Z,1.62
2018-12-17T14:56:45.242Z,1.62
2018-12-17T14:59:11.088Z,1.62
2018-12-17T15:01:36.929Z,1.67
2018-12-17T15:04:02.891Z,1.64
2018-12-17T15:06:28.855Z,1.46
2018-12-17T15:08:54.714Z,1.42
2018-12-17T15:11:20.666Z,1.44
2018-12-17T15:13:46.504Z,1.41
2018-12-17T15:16:12.396Z,1.64
2018-12-17T15:18:38.247Z,1.59
2018-12-17T15:21:04.079Z,1.57
2018-12-17T15:23:30.003Z,1.51
2018-12-17T15:25:55.905Z,1.43
2018-12-17T15:28:21.757Z,1.34
2018-12-17T15:30:47.587Z,1.38
2018-12-17T15:33:13.525Z,1.34
2018-12-17T15:35:39.400Z,1.32
2018-12-17T15:38:05.259Z,1.30
2018-12-17T15:40:31.097Z,1.25
2018-12-17T15:42:56.942Z,1.18
2018-12-17T15:45:22.948Z,1.18
2018-12-17T15:47:48.834Z,1.12
2018-12-17T15:50:14.740Z,1.14
2018-12-17T15:52:40.634Z,1.18
2018-12-17T15:55:13.644Z,1.19
2018-12-17T15:57:39.527Z,1.26
2018-12-17T16:00:07.780Z,1.35
2018-12-17T16:02:33.642Z,1.25
2018-12-17T16:04:59.657Z,1.24
2018-12-17T16:07:25.506Z,1.28
2018-12-17T16:09:53.658Z,1.25
2018-12-17T16:12:19.512Z,1.18
2018-12-17T16:14:45.462Z,1.29
2018-12-17T16:17:11.369Z,1.49
2018-12-17T16:19:37.248Z,1.54
2018-12-17T16:22:03.239Z,1.54
2018-12-17T16:24:29.114Z,1.60
2018-12-17T16:26:55.021Z,1.54
2018-12-17T16:29:20.893Z,1.51
2018-12-17T16:31:46.761Z,1.58
2018-12-17T16:34:12.608Z,1.66
2018-12-17T16:36:38.780Z,1.72
2018-12-17T16:39:05.174Z,1.67
2018-12-17T16:41:31.356Z,1.71
2018-12-17T16:43:57.226Z,1.68
2018-12-17T16:46:23.122Z,1.69
2018-12-17T16:48:48.966Z,1.68
2018-12-17T16:51:14.934Z,1.66
2018-12-17T16:53:40.862Z,1.70
2018-12-17T16:56:06.970Z,1.71
2018-12-17T16:58:32.867Z,1.68
2018-12-17T17:00:58.852Z,1.66
2018-12-17T17:03:24.985Z,1.64
2018-12-17T17:05:50.898Z,1.63
2018-12-17T17:08:16.742Z,1.68
2018-12-17T17:10:42.599Z,1.66
2018-12-17T17:13:08.439Z,1.63
2018-12-17T17:15:34.327Z,1.66
2018-12-17T17:18:00.254Z,1.69
2018-12-17T17:20:26.114Z,1.70
2018-12-17T17:22:51.967Z,1.73
2018-12-17T17:25:17.890Z,1.71
2018-12-17T17:27:43.750Z,1.71
2018-12-17T17:30:09.864Z,1.73
2018-12-17T17:32:35.822Z,1.70
2018-12-17T17:35:01.662Z,1.73
2018-12-17T17:37:35.186Z,1.77
2018-12-17T17:40:01.547Z,1.72
2018-12-17T17:42:27.546Z,1.75
2018-12-17T17:44:53.429Z,1.73
2018-12-17T17:47:19.307Z,1.70
2018-12-17T17:49:45.272Z,1.66
2018-12-17T17:52:11.166Z,1.67
2018-12-17T17:54:37.008Z,1.66
2018-12-17T17:57:02.914Z,1.55
2018-12-17T17:59:28.813Z,1.70
2018-12-17T18:01:54.836Z,1.76
2018-12-17T18:04:20.890Z,1.78
2018-12-17T18:06:46.855Z,1.76
2018-12-17T18:09:12.796Z,1.64
2018-12-17T18:11:38.796Z,1.72
2018-12-17T18:14:04.914Z,1.77
2018-12-17T18:16:30.796Z,1.81
2018-12-17T18:18:56.710Z,1.80
2018-12-17T18:21:22.557Z,1.62
2018-12-17T18:23:48.529Z,1.50
2018-12-17T18:26:14.421Z,1.52
2018-12-17T18:28:40.301Z,1.47
2018-12-17T18:31:06.195Z,1.48
2018-12-17T18:33:32.050Z,1.47
2018-12-17T18:35:58.036Z,1.43
2018-12-17T18:38:23.900Z,1.43
2018-12-17T18:40:49.772Z,1.34
2018-12-17T18:43:15.716Z,1.29
2018-12-17T18:45:42.339Z,1.28
2018-12-17T18:48:08.391Z,1.29
2018-12-17T18:50:34.296Z,1.50
2018-12-17T18:53:00.225Z,1.65
2018-12-17T18:55:26.106Z,1.72
2018-12-17T18:57:52.010Z,1.76
2018-12-17T19:00:18.040Z,1.68
2018-12-17T19:02:43.950Z,1.56
2018-12-17T19:05:09.802Z,1.49
2018-12-17T19:07:35.688Z,1.28
2018-12-17T19:10:02.870Z,1.27
2018-12-17T19:12:29.695Z,1.36
2018-12-17T19:14:55.573Z,1.45
2018-12-17T19:17:21.549Z,1.68
2018-12-17T19:19:47.477Z,1.75
2018-12-17T19:22:13.846Z,1.80
2018-12-17T19:24:39.735Z,1.83
2018-12-17T19:27:07.028Z,1.80
2018-12-17T19:29:32.952Z,1.72
2018-12-17T19:31:58.866Z,1.64
2018-12-17T19:34:25.836Z,1.69
2018-12-17T19:36:51.874Z,1.74
2018-12-17T19:39:17.737Z,1.72
2018-12-17T19:41:43.656Z,1.68
2018-12-17T19:44:09.575Z,1.66
2018-12-17T19:46:35.751Z,1.66
2018-12-17T19:49:01.711Z,1.51
2018-12-17T19:51:34.580Z,1.62
2018-12-17T19:54:00.471Z,1.68
2018-12-17T19:56:26.395Z,1.38
2018-12-17T19:58:52.287Z,1.29
2018-12-17T20:01:18.182Z,1.26
2018-12-17T20:03:44.159Z,1.17
2018-12-17T20:06:10.134Z,1.07
2018-12-17T20:08:36.075Z,0.89
2018-12-17T20:11:02.011Z,0.83
2018-12-17T20:13:27.907Z,0.92
2018-12-17T20:15:53.770Z,1.12
2018-12-17T20:18:19.642Z,1.08
2018-12-17T20:20:45.572Z,1.08
2018-12-17T20:23:11.444Z,1.11
2018-12-17T20:25:37.312Z,1.30
2018-12-17T20:28:03.168Z,1.36
2018-12-17T20:30:29.118Z,1.54
2018-12-17T20:32:55.009Z,1.66
2018-12-17T20:35:20.912Z,1.63
2018-12-17T20:37:46.872Z,1.67
2018-12-17T20:40:12.743Z,1.65
2018-12-17T20:42:38.650Z,1.66
2018-12-17T20:45:05.758Z,1.43
2018-12-17T20:47:31.587Z,1.24
2018-12-17T20:49:57.554Z,1.49
2018-12-17T20:52:23.415Z,1.63
2018-12-17T20:54:49.291Z,1.66
2018-12-17T20:57:15.137Z,1.80
2018-12-17T20:59:41.012Z,1.87
2018-12-17T21:02:06.895Z,1.92
2018-12-17T21:04:32.917Z,1.86
2018-12-17T21:06:58.814Z,1.89
2018-12-17T21:09:24.818Z,1.94
2018-12-17T21:11:50.695Z,1.85
2018-12-17T21:14:23.432Z,1.38
2018-12-17T21:16:45.274Z,1.18
2018-12-17T21:22:08.411Z,1.08
2018-12-17T21:24:34.932Z,1.08
2018-12-17T21:27:00.789Z,1.25
2018-12-17T21:29:26.648Z,1.25
2018-12-17T21:31:52.551Z,1.49
2018-12-17T21:34:18.402Z,1.76
2018-12-17T21:36:44.315Z,1.90
2018-12-17T21:39:10.203Z,1.96
2018-12-17T21:41:36.092Z,2.06
2018-12-17T21:44:02.201Z,2.10
2018-12-17T21:46:28.111Z,2.12
2018-12-17T21:48:54.136Z,2.12
2018-12-17T21:51:19.975Z,2.16
2018-12-17T21:53:45.838Z,2.16
2018-12-17T21:56:11.883Z,2.16
2018-12-17T21:58:38.089Z,2.12
2018-12-17T22:01:03.942Z,2.14
2018-12-17T22:03:29.905Z,2.14
2018-12-17T22:05:55.800Z,2.12
2018-12-17T22:08:21.669Z,2.14
2018-12-17T22:10:47.512Z,2.15
2018-12-17T22:13:13.366Z,2.15
2018-12-17T22:15:39.234Z,2.17
2018-12-17T22:18:05.106Z,2.19
2018-12-17T22:20:31.050Z,2.20
2018-12-17T22:22:56.922Z,2.22
2018-12-17T22:25:22.817Z,2.22
2018-12-17T22:27:48.702Z,2.25
2018-12-17T22:30:21.670Z,2.28
2018-12-17T22:32:47.553Z,2.26
2018-12-17T22:35:13.570Z,2.29
2018-12-17T22:37:39.517Z,2.31
2018-12-17T22:40:05.644Z,2.31
2018-12-17T22:42:31.513Z,2.31
2018-12-17T22:44:57.353Z,2.32
2018-12-17T22:47:23.297Z,2.36
2018-12-17T22:49:49.165Z,2.35
2018-12-17T22:52:15.055Z,2.37
2018-12-17T22:54:40.902Z,2.42
2018-12-17T22:57:06.758Z,2.45
2018-12-17T22:59:32.593Z,2.47
2018-12-17T23:01:58.570Z,2.55
2018-12-17T23:04:24.446Z,2.57
2018-12-17T23:06:50.288Z,2.60
2018-12-17T23:09:16.072Z,2.60
2018-12-17T23:12:00.658Z,2.58
2018-12-17T23:14:38.717Z,2.61
2018-12-17T23:17:16.837Z,2.63
2018-12-17T23:19:43.441Z,2.60
2018-12-17T23:22:09.848Z,2.65
2018-12-17T23:24:36.258Z,2.64
2018-12-17T23:27:02.141Z,2.61
2018-12-17T23:29:28.003Z,2.69
2018-12-17T23:31:53.870Z,2.68
2018-12-17T23:34:19.743Z,2.71
2018-12-17T23:36:45.683Z,2.79
2018-12-17T23:39:11.546Z,2.65
2018-12-17T23:41:37.400Z,2.77
2018-12-17T23:44:03.316Z,2.69
2018-12-17T23:46:29.785Z,2.80
2018-12-17T23:48:55.713Z,2.57
2018-12-17T23:51:21.705Z,2.26
2018-12-17T23:53:47.584Z,2.12
2018-12-17T23:56:13.427Z,2.00
2018-12-17T23:58:39.429Z,1.91
